createdAt,value
2022-09-03T00:00:18.070Z,0.0
2022-09-03T00:05:17.736Z,0.0
2022-09-03T00:10:17.634Z,0.0
2022-09-03T00:15:17.906Z,0.0
2022-09-03T00:20:17.613Z,0.0
2022-09-03T00:25:17.707Z,0.0
2022-09-03T00:30:17.931Z,0.0
2022-09-03T00:35:17.855Z,0.0
2022-09-03T00:40:17.815Z,0.0
2022-09-03T00:45:17.881Z,0.0
2022-09-03T00:50:19.178Z,0.0
2022-09-03T00:55:17.950Z,0.0
2022-09-03T01:00:17.800Z,0.0
2022-09-03T01:05:17.763Z,0.0
2022-09-03T01:10:18.070Z,0.0
2022-09-03T01:15:17.887Z,0.0
2022-09-03T01:20:17.750Z,0.0
2022-09-03T01:25:17.765Z,0.0
2022-09-03T01:30:17.809Z,0.0
2022-09-03T01:35:17.840Z,0.0
2022-09-03T01:40:17.790Z,0.0
2022-09-03T01:45:18.242Z,0.0
2022-09-03T01:50:17.909Z,0.0
2022-09-03T01:55:17.943Z,0.0
2022-09-03T02:00:17.791Z,0.0
2022-09-03T02:05:17.893Z,0.0
2022-09-03T02:10:17.918Z,0.0
2022-09-03T02:15:18.134Z,0.0
2022-09-03T02:20:18.116Z,0.0
2022-09-03T02:25:17.960Z,0.0
2022-09-03T02:30:18.028Z,0.0
2022-09-03T02:35:18.023Z,0.0
2022-09-03T02:40:17.907Z,0.0
2022-09-03T02:45:18.069Z,0.0
2022-09-03T02:50:19.269Z,0.0
2022-09-03T02:55:17.951Z,0.0
2022-09-03T03:00:18.261Z,0.0
2022-09-03T03:05:18.082Z,0.0
2022-09-03T03:10:18.033Z,0.0
2022-09-03T03:15:18.160Z,0.0
2022-09-03T03:20:18.022Z,0.0
2022-09-03T03:25:18.286Z,0.0
2022-09-03T03:30:18.006Z,0.0
2022-09-03T03:35:18.057Z,0.0
2022-09-03T03:40:18.135Z,0.0
2022-09-03T03:45:18.133Z,0.0
2022-09-03T03:50:18.080Z,0.0
2022-09-03T03:55:18.703Z,0.0
2022-09-03T04:00:17.161Z,0.0
2022-09-03T04:05:17.146Z,0.0
2022-09-03T04:10:17.265Z,0.0
2022-09-03T04:15:17.508Z,0.0
2022-09-03T04:20:17.236Z,0.0
2022-09-03T04:25:17.087Z,0.0
2022-09-03T04:30:17.734Z,0.0
2022-09-03T04:35:17.158Z,0.0
2022-09-03T04:40:17.127Z,0.0
2022-09-03T04:45:17.303Z,0.0
2022-09-03T04:50:17.797Z,0.0
2022-09-03T04:55:17.313Z,0.0
2022-09-03T05:00:17.249Z,0.0
2022-09-03T05:05:17.510Z,0.0
2022-09-03T05:10:17.180Z,0.0
2022-09-03T05:15:17.465Z,0.0
2022-09-03T05:20:17.354Z,0.0
2022-09-03T05:25:17.300Z,0.0
2022-09-03T05:30:17.399Z,0.0
2022-09-03T05:35:17.366Z,0.0
2022-09-03T05:40:17.594Z,0.0
2022-09-03T05:45:17.421Z,0.0
2022-09-03T05:50:17.284Z,0.0
2022-09-03T05:55:17.369Z,0.0
2022-09-03T06:00:17.463Z,0.0
2022-09-03T06:05:17.377Z,0.0
2022-09-03T06:10:17.317Z,0.0
2022-09-03T06:15:17.684Z,0.0
2022-09-03T06:20:17.299Z,0.0
2022-09-03T06:25:17.449Z,0.0
2022-09-03T06:30:17.659Z,0.0
2022-09-03T06:35:17.500Z,0.0
2022-09-03T06:40:17.545Z,0.0
2022-09-03T06:45:17.990Z,0.0
2022-09-03T06:50:18.846Z,0.0
2022-09-03T06:55:17.450Z,0.0
2022-09-03T07:00:17.676Z,0.0
2022-09-03T07:05:17.518Z,0.0
2022-09-03T07:10:17.393Z,0.0
2022-09-03T07:15:17.605Z,0.0
2022-09-03T07:20:17.673Z,0.0
2022-09-03T07:25:17.611Z,0.0
2022-09-03T07:30:18.570Z,0.0
2022-09-03T07:35:17.610Z,0.0
2022-09-03T07:40:19.528Z,0.0
2022-09-03T07:45:17.783Z,0.0
2022-09-03T07:50:17.594Z,0.0
2022-09-03T07:55:17.746Z,0.0
2022-09-03T08:00:18.074Z,0.0
2022-09-03T08:05:17.510Z,0.0
2022-09-03T08:10:17.602Z,0.0
2022-09-03T08:15:17.748Z,0.0
2022-09-03T08:20:17.566Z,0.0
2022-09-03T08:25:17.661Z,0.0
2022-09-03T08:30:17.966Z,0.0
2022-09-03T08:35:17.633Z,0.0
2022-09-03T08:40:17.624Z,0.0
2022-09-03T08:45:17.847Z,0.0
2022-09-03T08:50:17.792Z,0.0
2022-09-03T08:55:17.657Z,0.0
2022-09-03T09:00:17.858Z,0.0
2022-09-03T09:05:17.708Z,0.0
2022-09-03T09:10:18.878Z,0.0
2022-09-03T09:15:18.062Z,0.0
2022-09-03T09:20:17.721Z,0.0
2022-09-03T09:25:17.754Z,0.0
2022-09-03T09:30:17.835Z,0.0
2022-09-03T09:35:18.059Z,0.0
2022-09-03T09:40:17.919Z,0.0
2022-09-03T09:45:17.934Z,0.0
2022-09-03T09:50:25.104Z,0.0
2022-09-03T09:55:17.846Z,0.0
2022-09-03T10:00:18.103Z,0.0
2022-09-03T10:05:18.416Z,0.0
2022-09-03T10:10:18.330Z,0.0
2022-09-03T10:15:17.999Z,0.0
2022-09-03T10:20:18.032Z,0.0
2022-09-03T10:25:17.961Z,0.0
2022-09-03T10:30:18.147Z,0.0
2022-09-03T10:35:17.962Z,0.0
2022-09-03T10:40:18.070Z,0.0
2022-09-03T10:45:18.129Z,0.0
2022-09-03T10:50:17.952Z,0.0
2022-09-03T10:55:17.928Z,0.0
2022-09-03T11:00:18.022Z,0.0
2022-09-03T11:05:18.138Z,0.0
2022-09-03T11:10:18.157Z,0.0
2022-09-03T11:15:18.127Z,0.0
2022-09-03T11:20:17.946Z,0.0
2022-09-03T11:25:18.140Z,0.0
2022-09-03T11:30:18.183Z,0.0
2022-09-03T11:35:18.419Z,0.0
2022-09-03T11:40:17.971Z,0.0
2022-09-03T11:45:18.420Z,0.3
2022-09-03T11:50:17.999Z,0.0
2022-09-03T11:55:18.080Z,0.4
2022-09-03T12:00:18.103Z,0.6
2022-09-03T12:05:19.034Z,0.6
2022-09-03T12:10:18.290Z,0.7
2022-09-03T12:15:18.148Z,0.7
2022-09-03T12:20:18.353Z,0.8
2022-09-03T12:25:18.272Z,0.9
2022-09-03T12:30:18.315Z,1.0
2022-09-03T12:36:01.043Z,1.0
2022-09-03T12:40:18.220Z,1.0
2022-09-03T12:45:18.401Z,1.2
2022-09-03T12:50:20.017Z,1.3
2022-09-03T12:55:18.394Z,1.5
2022-09-03T13:00:16.344Z,1.6
2022-09-03T13:05:16.266Z,1.8
2022-09-03T13:10:16.544Z,2.0
2022-09-03T13:15:16.320Z,2.1
2022-09-03T13:20:16.570Z,2.3
2022-09-03T13:25:16.295Z,2.4
2022-09-03T13:30:16.397Z,2.5
2022-09-03T13:35:16.207Z,2.6
2022-09-03T13:40:16.310Z,2.6
2022-09-03T13:45:16.364Z,2.7
2022-09-03T13:50:16.371Z,2.6
2022-09-03T13:55:17.097Z,2.8
2022-09-03T14:00:16.493Z,3.1
2022-09-03T14:05:16.512Z,3.3
2022-09-03T14:10:16.534Z,3.5
2022-09-03T14:15:16.629Z,3.5
2022-09-03T14:20:16.282Z,3.6
2022-09-03T14:25:16.638Z,3.3
2022-09-03T14:30:16.605Z,3.1
2022-09-03T14:35:16.491Z,3.7
2022-09-03T14:40:16.519Z,4.1
2022-09-03T14:45:16.465Z,3.8
2022-09-03T14:50:17.003Z,3.4
2022-09-03T14:55:16.494Z,3.6
2022-09-03T15:00:18.444Z,4.9
2022-09-03T15:05:16.481Z,5.1
2022-09-03T15:10:16.498Z,5.0
2022-09-03T15:15:16.765Z,4.6
2022-09-03T15:20:16.495Z,4.9
2022-09-03T15:25:16.561Z,5.0
2022-09-03T15:30:16.555Z,5.4
2022-09-03T15:35:16.596Z,5.7
2022-09-03T15:40:16.575Z,5.8
2022-09-03T15:45:16.626Z,5.5
2022-09-03T15:50:16.622Z,5.5
2022-09-03T15:55:17.150Z,5.4
2022-09-03T16:00:16.736Z,3.9
2022-09-03T16:05:16.553Z,3.8
2022-09-03T16:10:25.295Z,4.0
2022-09-03T16:15:16.988Z,5.1
2022-09-03T16:20:16.865Z,5.6
2022-09-03T16:25:16.973Z,5.5
2022-09-03T16:30:16.732Z,5.4
2022-09-03T16:35:16.695Z,4.8
2022-09-03T16:40:16.610Z,4.9
2022-09-03T16:45:16.843Z,5.3
2022-09-03T16:50:16.754Z,5.7
2022-09-03T16:55:17.743Z,5.3
2022-09-03T17:00:16.902Z,5.5
2022-09-03T17:05:16.692Z,5.6
2022-09-03T17:10:16.841Z,5.8
2022-09-03T17:15:16.858Z,6.0
2022-09-03T17:20:16.758Z,6.0
2022-09-03T17:25:16.753Z,5.9
2022-09-03T17:30:17.038Z,5.9
2022-09-03T17:35:16.802Z,5.8
2022-09-03T17:40:16.750Z,5.5
2022-09-03T17:45:17.079Z,5.5
2022-09-03T17:50:16.766Z,5.6
2022-09-03T17:55:16.843Z,5.5
2022-09-03T18:00:16.973Z,5.4
2022-09-03T18:05:17.008Z,5.3
2022-09-03T18:10:16.913Z,5.2
2022-09-03T18:15:16.868Z,5.0
2022-09-03T18:20:17.056Z,4.7
2022-09-03T18:25:16.843Z,4.4
2022-09-03T18:30:16.867Z,4.3
2022-09-03T18:35:16.925Z,4.2
2022-09-03T18:40:16.965Z,4.1
2022-09-03T18:45:24.333Z,4.1
2022-09-03T18:50:16.923Z,4.0
2022-09-03T18:55:17.040Z,3.6
2022-09-03T19:00:16.835Z,4.0
2022-09-03T19:05:17.021Z,4.2
2022-09-03T19:10:17.113Z,3.9
2022-09-03T19:15:17.789Z,3.7
2022-09-03T19:20:17.091Z,3.6
2022-09-03T19:25:16.943Z,3.5
2022-09-03T19:30:17.101Z,3.5
2022-09-03T19:35:17.054Z,3.2
2022-09-03T19:40:17.001Z,2.8
2022-09-03T19:45:17.152Z,2.7
2022-09-03T19:50:17.352Z,2.7
2022-09-03T19:55:17.246Z,2.6
2022-09-03T20:00:17.037Z,2.5
2022-09-03T20:05:17.089Z,2.0
2022-09-03T20:10:17.065Z,1.5
2022-09-03T20:15:17.207Z,1.7
2022-09-03T20:20:17.052Z,1.9
2022-09-03T20:25:17.248Z,2.0
2022-09-03T20:30:17.231Z,1.7
2022-09-03T20:35:17.197Z,1.3
2022-09-03T20:40:17.342Z,1.3
2022-09-03T20:45:17.151Z,1.4
2022-09-03T20:50:17.100Z,1.3
2022-09-03T20:55:17.117Z,1.2
2022-09-03T21:00:17.421Z,1.1
2022-09-03T21:05:17.130Z,1.0
2022-09-03T21:10:17.071Z,0.9
2022-09-03T21:15:17.389Z,0.8
2022-09-03T21:20:17.141Z,0.7
2022-09-03T21:25:17.343Z,0.6
2022-09-03T21:30:17.359Z,0.5
2022-09-03T21:35:18.841Z,0.5
2022-09-03T21:45:17.427Z,0.1
2022-09-03T21:50:18.017Z,0.0
2022-09-03T21:55:17.312Z,0.0
2022-09-03T22:00:20.401Z,0.0
2022-09-03T22:05:17.335Z,0.0
2022-09-03T22:10:20.444Z,0.0
2022-09-03T22:15:17.488Z,0.0
2022-09-03T22:20:17.283Z,0.0
2022-09-03T22:25:17.867Z,0.0
2022-09-03T22:30:20.019Z,0.0
2022-09-03T22:35:17.421Z,0.0
2022-09-03T22:40:17.844Z,0.0
2022-09-03T22:45:17.582Z,0.0
2022-09-03T22:50:17.283Z,0.0
2022-09-03T22:55:17.486Z,0.0
2022-09-03T23:00:17.522Z,0.0
2022-09-03T23:05:17.483Z,0.0
2022-09-03T23:10:23.069Z,0.0
2022-09-03T23:15:17.746Z,0.0
2022-09-03T23:20:17.401Z,0.0
2022-09-03T23:25:17.539Z,0.0
2022-09-03T23:30:17.462Z,0.0
2022-09-03T23:35:17.520Z,0.0
2022-09-03T23:40:17.477Z,0.0
2022-09-03T23:45:17.797Z,0.0
2022-09-03T23:50:17.711Z,0.0
2022-09-03T23:55:17.476Z,0.0
